Terminal Aerodrome Forecast
Issued by NWS

Home | Current Version | Previous Version | Text Only | Print | Product List | Glossary On
Versions: 1 2 3 4 5 6 7 8 9 10 11 12 13 14 15 16 17 18 19 20 21 22 23 24 25 26 27 28 29 30 31 32
000
FTUS45 KGJT 291912 AAH
TAFASE
TAF AMD
KASE 291912Z 2919/3018 36007KT 2SM -SN BR OVC020
      TEMPO 2919/2923 BKN015
     FM292300 30006KT P6SM VCSH OVC040
     FM300400 27004KT P6SM VCSH OVC020
     FM300700 VRB03KT P6SM VCSH OVC040
     FM301000 VRB03KT P6SM VCSH OVC025=

USA.gov is the U.S. government's official web portal to all federal, state and local government web resources and services.